Terminal Aerodrome Forecast
Issued by NWS Wakefield, VA

Home | Current Version | Previous Version | Text Only | Print | Product List | Glossary On
Versions: 1 2 3 4 5 6 7 8 9 10 11 12 13 14 15 16 17 18 19 20
000
FTUS41 KAKQ 271922 AAA
TAFORF
TAF AMD
KORF 271922Z 2719/2818 03008KT P6SM SCT060
     FM272300 VRB03KT P6SM SCT060
     FM280400 34012KT P6SM SKC
     FM281300 35012G19KT P6SM SCT250=

USA.gov is the U.S. government's official web portal to all federal, state and local government web resources and services.